sensor_id;sensor_type;location;lat;lon;timestamp;P1;durP1;ratioP1;P2;durP2;ratioP2
11010;SDS011;5558;42.702;23.178;2022-07-29T00:00:03;10.03;;;9.13;;
11010;SDS011;5558;42.702;23.178;2022-07-29T00:02:32;9.93;;;8.93;;
11010;SDS011;5558;42.702;23.178;2022-07-29T00:04:58;9.53;;;8.60;;
11010;SDS011;5558;42.702;23.178;2022-07-29T00:07:25;10.03;;;9.03;;
11010;SDS011;5558;42.702;23.178;2022-07-29T00:09:52;10.00;;;9.00;;
11010;SDS011;5558;42.702;23.178;2022-07-29T00:12:19;10.13;;;9.13;;
11010;SDS011;5558;42.702;23.178;2022-07-29T00:14:48;10.30;;;9.30;;
11010;SDS011;5558;42.702;23.178;2022-07-29T00:17:15;10.10;;;9.10;;
11010;SDS011;5558;42.702;23.178;2022-07-29T00:19:42;10.40;;;9.40;;
11010;SDS011;5558;42.702;23.178;2022-07-29T00:22:09;10.40;;;9.40;;
11010;SDS011;5558;42.702;23.178;2022-07-29T00:24:35;10.07;;;9.07;;
11010;SDS011;5558;42.702;23.178;2022-07-29T00:27:02;9.60;;;8.70;;
11010;SDS011;5558;42.702;23.178;2022-07-29T00:29:30;10.37;;;9.30;;
11010;SDS011;5558;42.702;23.178;2022-07-29T00:31:58;10.63;;;9.63;;
11010;SDS011;5558;42.702;23.178;2022-07-29T00:34:25;10.23;;;9.23;;
11010;SDS011;5558;42.702;23.178;2022-07-29T00:37:09;10.57;;;8.80;;
11010;SDS011;5558;42.702;23.178;2022-07-29T00:39:36;10.13;;;9.13;;
11010;SDS011;5558;42.702;23.178;2022-07-29T00:42:03;9.60;;;8.70;;
11010;SDS011;5558;42.702;23.178;2022-07-29T00:44:32;9.97;;;9.00;;
11010;SDS011;5558;42.702;23.178;2022-07-29T00:47:04;10.40;;;9.40;;
11010;SDS011;5558;42.702;23.178;2022-07-29T00:49:31;10.43;;;9.33;;
11010;SDS011;5558;42.702;23.178;2022-07-29T00:51:57;10.50;;;9.40;;
11010;SDS011;5558;42.702;23.178;2022-07-29T00:54:26;10.10;;;9.00;;
11010;SDS011;5558;42.702;23.178;2022-07-29T00:56:54;10.60;;;9.50;;
11010;SDS011;5558;42.702;23.178;2022-07-29T00:59:21;11.27;;;10.13;;
11010;SDS011;5558;42.702;23.178;2022-07-29T01:01:48;10.27;;;9.27;;
11010;SDS011;5558;42.702;23.178;2022-07-29T01:04:16;9.80;;;8.87;;
11010;SDS011;5558;42.702;23.178;2022-07-29T01:06:43;9.83;;;8.93;;
11010;SDS011;5558;42.702;23.178;2022-07-29T01:09:10;9.10;;;7.77;;
11010;SDS011;5558;42.702;23.178;2022-07-29T01:11:38;8.93;;;8.13;;
11010;SDS011;5558;42.702;23.178;2022-07-29T01:14:05;8.93;;;8.03;;
11010;SDS011;5558;42.702;23.178;2022-07-29T01:16:35;8.63;;;7.83;;
11010;SDS011;5558;42.702;23.178;2022-07-29T01:19:12;8.90;;;8.00;;
11010;SDS011;5558;42.702;23.178;2022-07-29T01:21:55;8.13;;;7.30;;
11010;SDS011;5558;42.702;23.178;2022-07-29T01:24:39;8.47;;;7.67;;
11010;SDS011;5558;42.702;23.178;2022-07-29T01:27:29;9.03;;;8.13;;
11010;SDS011;5558;42.702;23.178;2022-07-29T01:30:06;8.80;;;8.00;;
11010;SDS011;5558;42.702;23.178;2022-07-29T01:32:35;8.63;;;7.60;;
11010;SDS011;5558;42.702;23.178;2022-07-29T01:35:04;9.00;;;8.20;;
11010;SDS011;5558;42.702;23.178;2022-07-29T01:37:36;8.47;;;7.67;;
11010;SDS011;5558;42.702;23.178;2022-07-29T01:40:11;8.70;;;7.90;;
11010;SDS011;5558;42.702;23.178;2022-07-29T01:42:48;8.57;;;7.77;;
11010;SDS011;5558;42.702;23.178;2022-07-29T01:45:21;8.50;;;7.70;;
11010;SDS011;5558;42.702;23.178;2022-07-29T01:47:54;8.27;;;7.57;;
11010;SDS011;5558;42.702;23.178;2022-07-29T01:50:27;8.07;;;7.30;;
11010;SDS011;5558;42.702;23.178;2022-07-29T01:52:58;8.40;;;7.60;;
11010;SDS011;5558;42.702;23.178;2022-07-29T01:55:28;9.93;;;7.93;;
11010;SDS011;5558;42.702;23.178;2022-07-29T01:57:58;8.90;;;8.10;;
11010;SDS011;5558;42.702;23.178;2022-07-29T02:00:27;9.00;;;8.10;;
11010;SDS011;5558;42.702;23.178;2022-07-29T02:02:56;9.30;;;7.80;;
11010;SDS011;5558;42.702;23.178;2022-07-29T02:05:28;8.67;;;7.77;;
11010;SDS011;5558;42.702;23.178;2022-07-29T02:07:57;9.27;;;8.30;;
11010;SDS011;5558;42.702;23.178;2022-07-29T02:10:26;9.10;;;8.20;;
11010;SDS011;5558;42.702;23.178;2022-07-29T02:12:57;8.60;;;7.70;;
11010;SDS011;5558;42.702;23.178;2022-07-29T02:15:26;8.10;;;7.40;;
11010;SDS011;5558;42.702;23.178;2022-07-29T02:17:58;8.70;;;7.80;;
11010;SDS011;5558;42.702;23.178;2022-07-29T02:20:27;8.47;;;7.63;;
11010;SDS011;5558;42.702;23.178;2022-07-29T02:22:55;8.70;;;7.90;;
11010;SDS011;5558;42.702;23.178;2022-07-29T02:25:24;8.90;;;8.00;;
11010;SDS011;5558;42.702;23.178;2022-07-29T02:27:52;8.93;;;8.07;;
11010;SDS011;5558;42.702;23.178;2022-07-29T02:30:20;8.60;;;7.80;;
11010;SDS011;5558;42.702;23.178;2022-07-29T02:32:51;8.70;;;7.83;;
11010;SDS011;5558;42.702;23.178;2022-07-29T02:35:19;9.37;;;8.47;;
11010;SDS011;5558;42.702;23.178;2022-07-29T02:37:47;9.37;;;8.47;;
11010;SDS011;5558;42.702;23.178;2022-07-29T02:40:30;8.90;;;7.87;;
11010;SDS011;5558;42.702;23.178;2022-07-29T02:42:58;9.97;;;8.97;;
11010;SDS011;5558;42.702;23.178;2022-07-29T02:45:26;10.57;;;9.53;;
11010;SDS011;5558;42.702;23.178;2022-07-29T02:47:56;10.13;;;9.20;;
11010;SDS011;5558;42.702;23.178;2022-07-29T02:50:27;9.80;;;8.80;;
11010;SDS011;5558;42.702;23.178;2022-07-29T02:53:00;10.27;;;9.13;;
11010;SDS011;5558;42.702;23.178;2022-07-29T02:55:32;9.93;;;9.00;;
11010;SDS011;5558;42.702;23.178;2022-07-29T02:58:03;11.10;;;10.00;;
11010;SDS011;5558;42.702;23.178;2022-07-29T03:00:36;10.07;;;9.10;;
11010;SDS011;5558;42.702;23.178;2022-07-29T03:03:07;10.07;;;9.07;;
11010;SDS011;5558;42.702;23.178;2022-07-29T03:05:37;9.33;;;8.43;;
11010;SDS011;5558;42.702;23.178;2022-07-29T03:08:06;9.10;;;8.30;;
11010;SDS011;5558;42.702;23.178;2022-07-29T03:10:35;8.97;;;8.10;;
11010;SDS011;5558;42.702;23.178;2022-07-29T03:13:03;9.67;;;8.70;;
11010;SDS011;5558;42.702;23.178;2022-07-29T03:15:31;9.73;;;8.80;;
11010;SDS011;5558;42.702;23.178;2022-07-29T03:17:58;9.37;;;8.47;;
11010;SDS011;5558;42.702;23.178;2022-07-29T03:20:28;9.63;;;8.67;;
11010;SDS011;5558;42.702;23.178;2022-07-29T03:22:54;9.80;;;8.80;;
11010;SDS011;5558;42.702;23.178;2022-07-29T03:25:21;9.50;;;8.50;;
11010;SDS011;5558;42.702;23.178;2022-07-29T03:27:48;9.60;;;8.70;;
11010;SDS011;5558;42.702;23.178;2022-07-29T03:30:15;9.07;;;8.23;;
11010;SDS011;5558;42.702;23.178;2022-07-29T03:32:42;9.17;;;8.37;;
11010;SDS011;5558;42.702;23.178;2022-07-29T03:35:10;9.53;;;8.67;;
11010;SDS011;5558;42.702;23.178;2022-07-29T03:37:38;9.10;;;8.20;;
11010;SDS011;5558;42.702;23.178;2022-07-29T03:40:06;9.30;;;8.40;;
11010;SDS011;5558;42.702;23.178;2022-07-29T03:42:36;8.77;;;7.87;;
11010;SDS011;5558;42.702;23.178;2022-07-29T03:45:07;9.07;;;8.17;;
11010;SDS011;5558;42.702;23.178;2022-07-29T03:47:37;8.67;;;7.87;;
11010;SDS011;5558;42.702;23.178;2022-07-29T03:50:07;9.33;;;8.30;;
11010;SDS011;5558;42.702;23.178;2022-07-29T03:52:36;8.87;;;8.03;;
11010;SDS011;5558;42.702;23.178;2022-07-29T03:55:05;9.20;;;8.30;;
11010;SDS011;5558;42.702;23.178;2022-07-29T03:57:34;8.90;;;8.10;;
11010;SDS011;5558;42.702;23.178;2022-07-29T04:00:03;8.60;;;7.70;;
11010;SDS011;5558;42.702;23.178;2022-07-29T04:02:31;8.23;;;7.43;;
11010;SDS011;5558;42.702;23.178;2022-07-29T04:04:58;9.37;;;7.73;;
11010;SDS011;5558;42.702;23.178;2022-07-29T04:07:25;8.83;;;7.20;;
11010;SDS011;5558;42.702;23.178;2022-07-29T04:09:53;8.17;;;7.37;;
11010;SDS011;5558;42.702;23.178;2022-07-29T04:12:20;9.03;;;7.50;;
11010;SDS011;5558;42.702;23.178;2022-07-29T04:14:47;7.77;;;6.23;;
11010;SDS011;5558;42.702;23.178;2022-07-29T04:17:15;7.63;;;6.93;;
11010;SDS011;5558;42.702;23.178;2022-07-29T04:19:41;7.60;;;6.90;;
11010;SDS011;5558;42.702;23.178;2022-07-29T04:22:08;8.17;;;7.43;;
11010;SDS011;5558;42.702;23.178;2022-07-29T04:24:35;9.40;;;8.30;;
11010;SDS011;5558;42.702;23.178;2022-07-29T04:27:03;9.03;;;8.20;;
11010;SDS011;5558;42.702;23.178;2022-07-29T04:29:30;8.60;;;7.37;;
11010;SDS011;5558;42.702;23.178;2022-07-29T04:31:56;9.37;;;8.47;;
11010;SDS011;5558;42.702;23.178;2022-07-29T04:34:23;8.60;;;7.80;;
11010;SDS011;5558;42.702;23.178;2022-07-29T04:36:50;9.20;;;8.30;;
11010;SDS011;5558;42.702;23.178;2022-07-29T04:39:17;8.70;;;7.90;;
11010;SDS011;5558;42.702;23.178;2022-07-29T04:41:44;9.17;;;8.37;;
11010;SDS011;5558;42.702;23.178;2022-07-29T04:44:12;8.30;;;7.60;;
11010;SDS011;5558;42.702;23.178;2022-07-29T04:46:39;10.03;;;9.13;;
11010;SDS011;5558;42.702;23.178;2022-07-29T04:49:06;10.37;;;9.37;;
11010;SDS011;5558;42.702;23.178;2022-07-29T04:51:32;10.53;;;9.53;;
11010;SDS011;5558;42.702;23.178;2022-07-29T04:53:59;10.97;;;9.43;;
11010;SDS011;5558;42.702;23.178;2022-07-29T04:56:28;10.83;;;9.83;;
11010;SDS011;5558;42.702;23.178;2022-07-29T04:58:55;10.93;;;9.93;;
11010;SDS011;5558;42.702;23.178;2022-07-29T05:01:24;11.20;;;9.93;;
11010;SDS011;5558;42.702;23.178;2022-07-29T05:03:51;10.43;;;9.53;;
11010;SDS011;5558;42.702;23.178;2022-07-29T05:06:18;10.93;;;9.83;;
11010;SDS011;5558;42.702;23.178;2022-07-29T05:08:45;11.50;;;10.40;;
11010;SDS011;5558;42.702;23.178;2022-07-29T05:11:12;11.77;;;10.57;;
11010;SDS011;5558;42.702;23.178;2022-07-29T05:13:39;11.37;;;10.27;;
11010;SDS011;5558;42.702;23.178;2022-07-29T05:16:07;10.83;;;9.83;;
11010;SDS011;5558;42.702;23.178;2022-07-29T05:18:36;11.60;;;10.40;;
11010;SDS011;5558;42.702;23.178;2022-07-29T05:21:02;11.87;;;10.50;;
11010;SDS011;5558;42.702;23.178;2022-07-29T05:23:29;11.70;;;10.50;;
11010;SDS011;5558;42.702;23.178;2022-07-29T05:25:56;11.63;;;10.60;;
11010;SDS011;5558;42.702;23.178;2022-07-29T05:28:22;11.93;;;10.73;;
11010;SDS011;5558;42.702;23.178;2022-07-29T05:30:49;11.70;;;10.50;;
11010;SDS011;5558;42.702;23.178;2022-07-29T05:33:16;11.33;;;10.23;;
11010;SDS011;5558;42.702;23.178;2022-07-29T05:35:44;10.50;;;9.50;;
11010;SDS011;5558;42.702;23.178;2022-07-29T05:38:11;10.47;;;9.40;;
11010;SDS011;5558;42.702;23.178;2022-07-29T05:40:37;9.93;;;8.93;;
11010;SDS011;5558;42.702;23.178;2022-07-29T05:43:04;9.47;;;8.57;;
11010;SDS011;5558;42.702;23.178;2022-07-29T05:45:31;9.73;;;8.50;;
11010;SDS011;5558;42.702;23.178;2022-07-29T05:47:58;8.60;;;7.77;;
11010;SDS011;5558;42.702;23.178;2022-07-29T05:50:24;8.37;;;7.57;;
11010;SDS011;5558;42.702;23.178;2022-07-29T05:52:52;8.70;;;7.40;;
11010;SDS011;5558;42.702;23.178;2022-07-29T05:55:19;8.40;;;7.60;;
11010;SDS011;5558;42.702;23.178;2022-07-29T05:57:46;8.53;;;7.73;;
11010;SDS011;5558;42.702;23.178;2022-07-29T06:00:13;9.10;;;8.20;;
11010;SDS011;5558;42.702;23.178;2022-07-29T06:02:40;8.33;;;7.53;;
11010;SDS011;5558;42.702;23.178;2022-07-29T06:05:07;8.97;;;7.67;;
11010;SDS011;5558;42.702;23.178;2022-07-29T06:07:35;8.00;;;7.20;;
11010;SDS011;5558;42.702;23.178;2022-07-29T06:10:04;7.87;;;7.00;;
11010;SDS011;5558;42.702;23.178;2022-07-29T06:12:31;7.53;;;6.83;;
11010;SDS011;5558;42.702;23.178;2022-07-29T06:14:58;7.80;;;7.10;;
11010;SDS011;5558;42.702;23.178;2022-07-29T06:17:25;8.93;;;7.13;;
11010;SDS011;5558;42.702;23.178;2022-07-29T06:19:52;7.60;;;6.90;;
11010;SDS011;5558;42.702;23.178;2022-07-29T06:22:18;8.03;;;7.23;;
11010;SDS011;5558;42.702;23.178;2022-07-29T06:24:45;9.63;;;7.30;;
11010;SDS011;5558;42.702;23.178;2022-07-29T06:27:13;7.77;;;7.07;;
11010;SDS011;5558;42.702;23.178;2022-07-29T06:29:41;9.27;;;8.23;;
11010;SDS011;5558;42.702;23.178;2022-07-29T06:32:08;10.33;;;7.70;;
11010;SDS011;5558;42.702;23.178;2022-07-29T06:34:35;8.47;;;7.33;;
11010;SDS011;5558;42.702;23.178;2022-07-29T06:37:05;10.13;;;7.63;;
11010;SDS011;5558;42.702;23.178;2022-07-29T06:39:33;9.40;;;8.50;;
11010;SDS011;5558;42.702;23.178;2022-07-29T06:42:00;9.20;;;8.30;;
11010;SDS011;5558;42.702;23.178;2022-07-29T06:44:28;10.77;;;8.57;;
11010;SDS011;5558;42.702;23.178;2022-07-29T06:46:55;10.50;;;9.50;;
11010;SDS011;5558;42.702;23.178;2022-07-29T06:49:21;11.10;;;9.53;;
11010;SDS011;5558;42.702;23.178;2022-07-29T06:51:49;11.73;;;9.60;;
11010;SDS011;5558;42.702;23.178;2022-07-29T06:54:16;9.70;;;8.70;;
11010;SDS011;5558;42.702;23.178;2022-07-29T06:56:43;9.73;;;8.73;;
11010;SDS011;5558;42.702;23.178;2022-07-29T06:59:10;9.83;;;8.83;;
11010;SDS011;5558;42.702;23.178;2022-07-29T07:01:40;9.90;;;8.27;;
11010;SDS011;5558;42.702;23.178;2022-07-29T07:04:08;9.27;;;8.37;;
11010;SDS011;5558;42.702;23.178;2022-07-29T07:06:36;8.50;;;7.70;;
11010;SDS011;5558;42.702;23.178;2022-07-29T07:09:04;9.17;;;7.70;;
11010;SDS011;5558;42.702;23.178;2022-07-29T07:11:30;7.70;;;7.00;;
11010;SDS011;5558;42.702;23.178;2022-07-29T07:13:57;8.43;;;7.40;;
11010;SDS011;5558;42.702;23.178;2022-07-29T07:16:24;7.60;;;6.90;;
11010;SDS011;5558;42.702;23.178;2022-07-29T07:18:52;8.67;;;7.73;;
11010;SDS011;5558;42.702;23.178;2022-07-29T07:21:19;8.20;;;7.40;;
11010;SDS011;5558;42.702;23.178;2022-07-29T07:23:46;8.07;;;7.27;;
11010;SDS011;5558;42.702;23.178;2022-07-29T07:26:13;9.33;;;8.00;;
11010;SDS011;5558;42.702;23.178;2022-07-29T07:28:39;8.63;;;7.27;;
11010;SDS011;5558;42.702;23.178;2022-07-29T07:31:08;8.03;;;7.07;;
11010;SDS011;5558;42.702;23.178;2022-07-29T07:33:35;9.00;;;7.27;;
11010;SDS011;5558;42.702;23.178;2022-07-29T07:36:04;7.70;;;6.90;;
11010;SDS011;5558;42.702;23.178;2022-07-29T07:38:31;8.43;;;7.53;;
11010;SDS011;5558;42.702;23.178;2022-07-29T07:40:58;7.87;;;7.07;;
11010;SDS011;5558;42.702;23.178;2022-07-29T07:45:33;6.37;;;5.73;;
11010;SDS011;5558;42.702;23.178;2022-07-29T07:48:02;8.10;;;7.00;;
11010;SDS011;5558;42.702;23.178;2022-07-29T07:50:29;8.47;;;6.97;;
11010;SDS011;5558;42.702;23.178;2022-07-29T07:52:55;7.97;;;6.73;;
11010;SDS011;5558;42.702;23.178;2022-07-29T07:55:23;7.70;;;6.90;;
11010;SDS011;5558;42.702;23.178;2022-07-29T07:57:50;8.37;;;7.00;;
11010;SDS011;5558;42.702;23.178;2022-07-29T08:00:17;7.43;;;6.63;;
11010;SDS011;5558;42.702;23.178;2022-07-29T08:02:45;4.67;;;4.23;;
11010;SDS011;5558;42.702;23.178;2022-07-29T08:05:13;5.33;;;4.17;;
11010;SDS011;5558;42.702;23.178;2022-07-29T08:07:42;5.23;;;4.20;;
11010;SDS011;5558;42.702;23.178;2022-07-29T08:10:10;4.60;;;4.20;;
11010;SDS011;5558;42.702;23.178;2022-07-29T08:12:36;4.37;;;3.97;;
11010;SDS011;5558;42.702;23.178;2022-07-29T08:15:03;4.73;;;4.23;;
11010;SDS011;5558;42.702;23.178;2022-07-29T08:17:32;4.83;;;4.43;;
11010;SDS011;5558;42.702;23.178;2022-07-29T08:20:00;5.30;;;4.37;;
11010;SDS011;5558;42.702;23.178;2022-07-29T08:22:27;5.33;;;4.27;;
11010;SDS011;5558;42.702;23.178;2022-07-29T08:24:54;5.70;;;4.73;;
11010;SDS011;5558;42.702;23.178;2022-07-29T08:27:21;5.23;;;4.73;;
11010;SDS011;5558;42.702;23.178;2022-07-29T08:29:48;4.77;;;4.33;;
11010;SDS011;5558;42.702;23.178;2022-07-29T08:32:15;4.87;;;4.47;;
11010;SDS011;5558;42.702;23.178;2022-07-29T08:34:42;5.23;;;4.73;;
11010;SDS011;5558;42.702;23.178;2022-07-29T08:37:12;5.40;;;4.90;;
11010;SDS011;5558;42.702;23.178;2022-07-29T08:39:39;6.80;;;4.80;;
11010;SDS011;5558;42.702;23.178;2022-07-29T08:42:06;5.37;;;4.27;;
11010;SDS011;5558;42.702;23.178;2022-07-29T08:44:34;5.10;;;4.60;;
11010;SDS011;5558;42.702;23.178;2022-07-29T08:47:02;5.00;;;4.50;;
11010;SDS011;5558;42.702;23.178;2022-07-29T08:49:29;4.80;;;4.23;;
11010;SDS011;5558;42.702;23.178;2022-07-29T08:51:57;4.70;;;4.30;;
11010;SDS011;5558;42.702;23.178;2022-07-29T08:54:25;4.90;;;4.40;;
11010;SDS011;5558;42.702;23.178;2022-07-29T08:56:53;4.40;;;4.00;;
11010;SDS011;5558;42.702;23.178;2022-07-29T08:59:22;4.13;;;3.73;;
11010;SDS011;5558;42.702;23.178;2022-07-29T09:01:52;4.47;;;4.07;;
11010;SDS011;5558;42.702;23.178;2022-07-29T09:04:20;4.23;;;3.70;;
11010;SDS011;5558;42.702;23.178;2022-07-29T09:06:51;4.03;;;3.63;;
11010;SDS011;5558;42.702;23.178;2022-07-29T09:09:20;5.13;;;3.67;;
11010;SDS011;5558;42.702;23.178;2022-07-29T09:11:49;4.60;;;3.40;;
11010;SDS011;5558;42.702;23.178;2022-07-29T09:14:18;4.73;;;3.40;;
11010;SDS011;5558;42.702;23.178;2022-07-29T09:16:46;3.93;;;3.60;;
11010;SDS011;5558;42.702;23.178;2022-07-29T09:19:24;3.93;;;3.60;;
11010;SDS011;5558;42.702;23.178;2022-07-29T09:21:53;3.87;;;3.43;;
11010;SDS011;5558;42.702;23.178;2022-07-29T09:24:24;3.93;;;3.60;;
11010;SDS011;5558;42.702;23.178;2022-07-29T09:26:53;4.63;;;3.80;;
11010;SDS011;5558;42.702;23.178;2022-07-29T09:29:21;3.87;;;3.57;;
11010;SDS011;5558;42.702;23.178;2022-07-29T09:31:50;4.00;;;3.40;;
11010;SDS011;5558;42.702;23.178;2022-07-29T09:34:21;4.10;;;3.70;;
11010;SDS011;5558;42.702;23.178;2022-07-29T09:36:49;6.40;;;3.53;;
11010;SDS011;5558;42.702;23.178;2022-07-29T09:39:26;4.37;;;3.50;;
11010;SDS011;5558;42.702;23.178;2022-07-29T09:41:56;3.60;;;3.30;;
11010;SDS011;5558;42.702;23.178;2022-07-29T09:44:23;3.80;;;3.27;;
11010;SDS011;5558;42.702;23.178;2022-07-29T09:46:54;4.20;;;3.27;;
11010;SDS011;5558;42.702;23.178;2022-07-29T09:49:22;3.70;;;3.40;;
11010;SDS011;5558;42.702;23.178;2022-07-29T09:51:58;3.67;;;3.37;;
11010;SDS011;5558;42.702;23.178;2022-07-29T09:54:26;3.50;;;3.20;;
11010;SDS011;5558;42.702;23.178;2022-07-29T09:56:54;3.33;;;3.13;;
11010;SDS011;5558;42.702;23.178;2022-07-29T09:59:22;3.40;;;3.10;;
11010;SDS011;5558;42.702;23.178;2022-07-29T10:01:51;4.40;;;3.50;;
11010;SDS011;5558;42.702;23.178;2022-07-29T10:04:18;3.73;;;3.20;;
11010;SDS011;5558;42.702;23.178;2022-07-29T10:09:30;3.60;;;3.30;;
11010;SDS011;5558;42.702;23.178;2022-07-29T10:12:05;3.63;;;3.33;;
11010;SDS011;5558;42.702;23.178;2022-07-29T10:14:34;3.10;;;2.90;;
11010;SDS011;5558;42.702;23.178;2022-07-29T10:17:02;3.57;;;3.23;;
11010;SDS011;5558;42.702;23.178;2022-07-29T10:19:30;3.57;;;3.37;;
11010;SDS011;5558;42.702;23.178;2022-07-29T10:21:58;4.43;;;3.30;;
11010;SDS011;5558;42.702;23.178;2022-07-29T10:24:25;3.77;;;3.47;;
11010;SDS011;5558;42.702;23.178;2022-07-29T10:26:52;3.70;;;3.40;;
11010;SDS011;5558;42.702;23.178;2022-07-29T10:29:24;4.10;;;3.80;;
11010;SDS011;5558;42.702;23.178;2022-07-29T10:31:54;6.23;;;3.40;;
11010;SDS011;5558;42.702;23.178;2022-07-29T10:34:35;3.80;;;3.50;;
11010;SDS011;5558;42.702;23.178;2022-07-29T10:37:15;4.07;;;3.60;;
11010;SDS011;5558;42.702;23.178;2022-07-29T10:39:55;4.10;;;3.80;;
11010;SDS011;5558;42.702;23.178;2022-07-29T10:42:53;3.97;;;3.63;;
11010;SDS011;5558;42.702;23.178;2022-07-29T10:45:23;4.00;;;3.70;;
11010;SDS011;5558;42.702;23.178;2022-07-29T10:48:01;4.77;;;3.87;;
11010;SDS011;5558;42.702;23.178;2022-07-29T10:50:45;4.33;;;3.93;;
11010;SDS011;5558;42.702;23.178;2022-07-29T10:53:18;5.17;;;4.10;;
11010;SDS011;5558;42.702;23.178;2022-07-29T10:55:45;4.43;;;4.00;;
11010;SDS011;5558;42.702;23.178;2022-07-29T10:58:15;4.27;;;3.87;;
11010;SDS011;5558;42.702;23.178;2022-07-29T11:00:44;4.27;;;3.87;;
11010;SDS011;5558;42.702;23.178;2022-07-29T11:06:09;4.77;;;4.10;;
11010;SDS011;5558;42.702;23.178;2022-07-29T11:08:36;5.03;;;4.33;;
11010;SDS011;5558;42.702;23.178;2022-07-29T11:14:05;4.60;;;4.20;;
11010;SDS011;5558;42.702;23.178;2022-07-29T11:19:27;5.00;;;4.20;;
11010;SDS011;5558;42.702;23.178;2022-07-29T11:21:54;5.60;;;3.90;;
11010;SDS011;5558;42.702;23.178;2022-07-29T11:24:21;4.43;;;3.90;;
11010;SDS011;5558;42.702;23.178;2022-07-29T11:29:48;4.47;;;4.07;;
11010;SDS011;5558;42.702;23.178;2022-07-29T11:32:22;4.70;;;4.30;;
11010;SDS011;5558;42.702;23.178;2022-07-29T11:37:39;4.50;;;4.10;;
11010;SDS011;5558;42.702;23.178;2022-07-29T11:40:15;5.20;;;4.20;;
11010;SDS011;5558;42.702;23.178;2022-07-29T11:42:44;4.30;;;3.87;;
11010;SDS011;5558;42.702;23.178;2022-07-29T11:45:13;4.50;;;4.10;;
11010;SDS011;5558;42.702;23.178;2022-07-29T11:47:48;5.07;;;4.10;;
11010;SDS011;5558;42.702;23.178;2022-07-29T11:50:29;4.73;;;4.07;;
11010;SDS011;5558;42.702;23.178;2022-07-29T11:52:58;4.30;;;4.00;;
11010;SDS011;5558;42.702;23.178;2022-07-29T11:55:26;4.30;;;3.90;;
11010;SDS011;5558;42.702;23.178;2022-07-29T11:57:54;4.43;;;4.07;;
11010;SDS011;5558;42.702;23.178;2022-07-29T12:00:26;4.23;;;3.83;;
11010;SDS011;5558;42.702;23.178;2022-07-29T12:02:56;4.20;;;3.90;;
11010;SDS011;5558;42.702;23.178;2022-07-29T12:05:32;4.60;;;4.20;;
11010;SDS011;5558;42.702;23.178;2022-07-29T12:08:04;4.57;;;4.17;;
11010;SDS011;5558;42.702;23.178;2022-07-29T12:10:35;4.30;;;3.90;;
11010;SDS011;5558;42.702;23.178;2022-07-29T12:13:03;4.70;;;4.30;;
11010;SDS011;5558;42.702;23.178;2022-07-29T12:15:29;4.33;;;3.93;;
11010;SDS011;5558;42.702;23.178;2022-07-29T12:17:58;4.60;;;4.20;;
11010;SDS011;5558;42.702;23.178;2022-07-29T12:20:26;4.83;;;3.93;;
11010;SDS011;5558;42.702;23.178;2022-07-29T12:22:53;4.53;;;4.13;;
11010;SDS011;5558;42.702;23.178;2022-07-29T12:25:22;4.40;;;4.00;;
11010;SDS011;5558;42.702;23.178;2022-07-29T12:27:58;4.77;;;4.30;;
11010;SDS011;5558;42.702;23.178;2022-07-29T12:30:36;4.57;;;4.17;;
11010;SDS011;5558;42.702;23.178;2022-07-29T12:33:13;4.23;;;3.83;;
11010;SDS011;5558;42.702;23.178;2022-07-29T12:35:45;4.60;;;4.00;;
11010;SDS011;5558;42.702;23.178;2022-07-29T12:38:14;4.57;;;4.17;;
11010;SDS011;5558;42.702;23.178;2022-07-29T12:40:42;4.40;;;4.00;;
11010;SDS011;5558;42.702;23.178;2022-07-29T12:43:11;4.47;;;4.07;;
11010;SDS011;5558;42.702;23.178;2022-07-29T12:45:39;5.10;;;4.60;;
11010;SDS011;5558;42.702;23.178;2022-07-29T12:48:07;6.23;;;4.97;;
11010;SDS011;5558;42.702;23.178;2022-07-29T12:50:36;5.20;;;4.60;;
11010;SDS011;5558;42.702;23.178;2022-07-29T12:53:17;5.30;;;4.60;;
11010;SDS011;5558;42.702;23.178;2022-07-29T12:55:45;5.00;;;4.50;;
11010;SDS011;5558;42.702;23.178;2022-07-29T12:58:14;5.07;;;4.57;;
11010;SDS011;5558;42.702;23.178;2022-07-29T13:00:58;4.57;;;4.17;;
11010;SDS011;5558;42.702;23.178;2022-07-29T13:03:26;4.57;;;4.10;;
11010;SDS011;5558;42.702;23.178;2022-07-29T13:05:54;4.60;;;4.20;;
11010;SDS011;5558;42.702;23.178;2022-07-29T13:08:21;4.80;;;4.33;;
11010;SDS011;5558;42.702;23.178;2022-07-29T13:10:48;4.70;;;4.20;;
11010;SDS011;5558;42.702;23.178;2022-07-29T13:13:15;5.20;;;4.80;;
11010;SDS011;5558;42.702;23.178;2022-07-29T13:15:43;4.63;;;4.23;;
11010;SDS011;5558;42.702;23.178;2022-07-29T13:18:28;5.13;;;4.63;;
11010;SDS011;5558;42.702;23.178;2022-07-29T13:20:57;5.07;;;4.63;;
11010;SDS011;5558;42.702;23.178;2022-07-29T13:23:36;4.07;;;3.77;;
11010;SDS011;5558;42.702;23.178;2022-07-29T13:26:04;4.33;;;3.93;;
11010;SDS011;5558;42.702;23.178;2022-07-29T13:28:32;4.13;;;3.73;;
11010;SDS011;5558;42.702;23.178;2022-07-29T13:30:59;4.60;;;4.20;;
11010;SDS011;5558;42.702;23.178;2022-07-29T13:33:26;5.67;;;4.17;;
11010;SDS011;5558;42.702;23.178;2022-07-29T13:35:53;4.10;;;3.80;;
11010;SDS011;5558;42.702;23.178;2022-07-29T13:38:21;4.83;;;4.23;;
11010;SDS011;5558;42.702;23.178;2022-07-29T13:40:48;4.03;;;3.73;;
11010;SDS011;5558;42.702;23.178;2022-07-29T13:43:15;5.37;;;4.97;;
11010;SDS011;5558;42.702;23.178;2022-07-29T13:45:41;5.00;;;4.60;;
11010;SDS011;5558;42.702;23.178;2022-07-29T13:48:08;4.23;;;3.93;;
11010;SDS011;5558;42.702;23.178;2022-07-29T13:50:36;5.40;;;4.50;;
11010;SDS011;5558;42.702;23.178;2022-07-29T13:53:03;4.23;;;3.90;;
11010;SDS011;5558;42.702;23.178;2022-07-29T13:55:31;4.50;;;4.10;;
11010;SDS011;5558;42.702;23.178;2022-07-29T13:57:57;5.17;;;4.47;;
11010;SDS011;5558;42.702;23.178;2022-07-29T14:00:24;4.73;;;4.33;;
11010;SDS011;5558;42.702;23.178;2022-07-29T14:02:51;4.77;;;4.37;;
11010;SDS011;5558;42.702;23.178;2022-07-29T14:05:18;5.00;;;4.60;;
11010;SDS011;5558;42.702;23.178;2022-07-29T14:07:45;4.80;;;4.40;;
11010;SDS011;5558;42.702;23.178;2022-07-29T14:10:12;4.77;;;4.37;;
11010;SDS011;5558;42.702;23.178;2022-07-29T14:12:40;5.10;;;4.30;;
11010;SDS011;5558;42.702;23.178;2022-07-29T14:15:07;5.03;;;4.53;;
11010;SDS011;5558;42.702;23.178;2022-07-29T14:17:34;4.13;;;3.83;;
11010;SDS011;5558;42.702;23.178;2022-07-29T14:20:01;4.07;;;3.77;;
11010;SDS011;5558;42.702;23.178;2022-07-29T14:22:28;4.30;;;3.90;;
11010;SDS011;5558;42.702;23.178;2022-07-29T14:24:55;4.50;;;4.10;;
11010;SDS011;5558;42.702;23.178;2022-07-29T14:27:22;4.10;;;3.80;;
11010;SDS011;5558;42.702;23.178;2022-07-29T14:29:50;4.17;;;3.87;;
11010;SDS011;5558;42.702;23.178;2022-07-29T14:32:17;4.50;;;4.10;;
11010;SDS011;5558;42.702;23.178;2022-07-29T14:34:46;4.37;;;4.07;;
11010;SDS011;5558;42.702;23.178;2022-07-29T14:37:12;4.47;;;4.07;;
11010;SDS011;5558;42.702;23.178;2022-07-29T14:39:39;4.40;;;4.10;;
11010;SDS011;5558;42.702;23.178;2022-07-29T14:42:06;4.40;;;4.00;;
11010;SDS011;5558;42.702;23.178;2022-07-29T14:44:33;4.17;;;3.77;;
11010;SDS011;5558;42.702;23.178;2022-07-29T14:47:01;3.60;;;3.30;;
11010;SDS011;5558;42.702;23.178;2022-07-29T14:49:27;4.10;;;3.70;;
11010;SDS011;5558;42.702;23.178;2022-07-29T14:51:54;4.07;;;3.67;;
11010;SDS011;5558;42.702;23.178;2022-07-29T14:54:21;4.10;;;3.80;;
11010;SDS011;5558;42.702;23.178;2022-07-29T14:56:48;4.60;;;4.13;;
11010;SDS011;5558;42.702;23.178;2022-07-29T14:59:16;4.20;;;3.87;;
11010;SDS011;5558;42.702;23.178;2022-07-29T15:01:44;4.73;;;4.30;;
11010;SDS011;5558;42.702;23.178;2022-07-29T15:04:12;4.50;;;4.10;;
11010;SDS011;5558;42.702;23.178;2022-07-29T15:06:38;4.57;;;4.10;;
11010;SDS011;5558;42.702;23.178;2022-07-29T15:09:05;4.40;;;4.00;;
11010;SDS011;5558;42.702;23.178;2022-07-29T15:11:32;4.17;;;3.77;;
11010;SDS011;5558;42.702;23.178;2022-07-29T15:13:59;4.10;;;3.73;;